sensor_id;sensor_type;location;lat;lon;timestamp;temperature;humidity
31003;DHT22;23051;-6.372;106.786;2024-03-17T00:00:31;25.00;99.90
31003;DHT22;23051;-6.372;106.786;2024-03-17T00:02:32;25.00;99.90
31003;DHT22;23051;-6.372;106.786;2024-03-17T00:04:34;25.00;99.90
31003;DHT22;23051;-6.372;106.786;2024-03-17T00:06:53;25.00;99.90
31003;DHT22;23051;-6.372;106.786;2024-03-17T00:08:58;25.00;99.90
31003;DHT22;23051;-6.372;106.786;2024-03-17T00:10:59;25.10;99.90
31003;DHT22;23051;-6.372;106.786;2024-03-17T00:13:06;25.10;99.90
31003;DHT22;23051;-6.372;106.786;2024-03-17T00:15:26;25.10;99.90
31003;DHT22;23051;-6.372;106.786;2024-03-17T00:17:30;25.10;99.90
31003;DHT22;23051;-6.372;106.786;2024-03-17T00:19:31;25.10;99.90
31003;DHT22;23051;-6.372;106.786;2024-03-17T00:21:39;25.10;99.90
31003;DHT22;23051;-6.372;106.786;2024-03-17T00:23:41;25.10;99.90
31003;DHT22;23051;-6.372;106.786;2024-03-17T00:25:42;25.10;99.90
31003;DHT22;23051;-6.372;106.786;2024-03-17T00:27:44;25.20;99.90
31003;DHT22;23051;-6.372;106.786;2024-03-17T00:29:45;25.20;99.90
31003;DHT22;23051;-6.372;106.786;2024-03-17T00:31:46;25.20;99.90
31003;DHT22;23051;-6.372;106.786;2024-03-17T00:33:48;25.20;99.90
31003;DHT22;23051;-6.372;106.786;2024-03-17T00:35:49;25.30;99.80
31003;DHT22;23051;-6.372;106.786;2024-03-17T00:37:50;25.30;99.80
31003;DHT22;23051;-6.372;106.786;2024-03-17T00:39:52;25.30;99.80
31003;DHT22;23051;-6.372;106.786;2024-03-17T00:41:53;25.30;99.70
31003;DHT22;23051;-6.372;106.786;2024-03-17T00:43:54;25.40;99.70
31003;DHT22;23051;-6.372;106.786;2024-03-17T00:45:56;25.40;99.70
31003;DHT22;23051;-6.372;106.786;2024-03-17T00:47:57;25.40;99.60
31003;DHT22;23051;-6.372;106.786;2024-03-17T00:49:58;25.40;99.60
31003;DHT22;23051;-6.372;106.786;2024-03-17T00:51:59;25.50;99.60
31003;DHT22;23051;-6.372;106.786;2024-03-17T00:54:00;25.50;99.60
31003;DHT22;23051;-6.372;106.786;2024-03-17T00:56:01;25.50;99.50
31003;DHT22;23051;-6.372;106.786;2024-03-17T00:58:03;25.50;99.50
31003;DHT22;23051;-6.372;106.786;2024-03-17T01:00:04;25.60;99.50
31003;DHT22;23051;-6.372;106.786;2024-03-17T01:02:07;25.60;99.40
31003;DHT22;23051;-6.372;106.786;2024-03-17T01:04:08;25.60;99.40
31003;DHT22;23051;-6.372;106.786;2024-03-17T01:06:09;25.70;99.30
31003;DHT22;23051;-6.372;106.786;2024-03-17T01:08:11;25.70;99.30
31003;DHT22;23051;-6.372;106.786;2024-03-17T01:10:12;25.70;99.20
31003;DHT22;23051;-6.372;106.786;2024-03-17T01:12:13;25.70;99.20
31003;DHT22;23051;-6.372;106.786;2024-03-17T01:14:14;25.80;99.20
31003;DHT22;23051;-6.372;106.786;2024-03-17T01:16:16;25.80;99.20
31003;DHT22;23051;-6.372;106.786;2024-03-17T01:18:17;25.80;99.10
31003;DHT22;23051;-6.372;106.786;2024-03-17T01:20:19;25.90;99.10
31003;DHT22;23051;-6.372;106.786;2024-03-17T01:22:20;25.90;99.00
31003;DHT22;23051;-6.372;106.786;2024-03-17T01:24:21;25.90;99.00
31003;DHT22;23051;-6.372;106.786;2024-03-17T01:26:23;26.00;99.00
31003;DHT22;23051;-6.372;106.786;2024-03-17T01:28:24;26.00;99.00
31003;DHT22;23051;-6.372;106.786;2024-03-17T01:30:27;26.00;98.90
31003;DHT22;23051;-6.372;106.786;2024-03-17T01:32:28;26.00;98.90
31003;DHT22;23051;-6.372;106.786;2024-03-17T01:34:30;26.00;98.90
31003;DHT22;23051;-6.372;106.786;2024-03-17T01:36:31;26.10;98.90
31003;DHT22;23051;-6.372;106.786;2024-03-17T01:38:32;26.00;98.80
31003;DHT22;23051;-6.372;106.786;2024-03-17T01:40:34;26.00;98.90
31003;DHT22;23051;-6.372;106.786;2024-03-17T01:42:36;26.10;98.90
31003;DHT22;23051;-6.372;106.786;2024-03-17T01:44:37;26.10;98.90
31003;DHT22;23051;-6.372;106.786;2024-03-17T01:46:38;26.10;98.80
31003;DHT22;23051;-6.372;106.786;2024-03-17T01:48:40;26.10;98.80
31003;DHT22;23051;-6.372;106.786;2024-03-17T01:50:41;26.20;98.80
31003;DHT22;23051;-6.372;106.786;2024-03-17T01:52:43;26.20;98.80
31003;DHT22;23051;-6.372;106.786;2024-03-17T01:54:44;26.20;98.80
31003;DHT22;23051;-6.372;106.786;2024-03-17T01:56:47;26.20;98.80
31003;DHT22;23051;-6.372;106.786;2024-03-17T01:58:48;26.20;98.80
31003;DHT22;23051;-6.372;106.786;2024-03-17T02:00:51;26.20;98.70
31003;DHT22;23051;-6.372;106.786;2024-03-17T02:02:55;26.30;98.70
31003;DHT22;23051;-6.372;106.786;2024-03-17T02:04:56;26.40;98.70
31003;DHT22;23051;-6.372;106.786;2024-03-17T02:06:57;26.40;98.60
31003;DHT22;23051;-6.372;106.786;2024-03-17T02:08:58;26.40;98.50
31003;DHT22;23051;-6.372;106.786;2024-03-17T02:11:00;26.40;98.40
31003;DHT22;23051;-6.372;106.786;2024-03-17T02:13:01;26.50;98.40
31003;DHT22;23051;-6.372;106.786;2024-03-17T02:15:06;26.60;98.30
31003;DHT22;23051;-6.372;106.786;2024-03-17T02:17:07;26.60;98.30
31003;DHT22;23051;-6.372;106.786;2024-03-17T02:19:09;26.60;98.30
31003;DHT22;23051;-6.372;106.786;2024-03-17T02:21:12;26.70;98.30
31003;DHT22;23051;-6.372;106.786;2024-03-17T02:23:13;26.70;98.30
31003;DHT22;23051;-6.372;106.786;2024-03-17T02:25:14;26.70;98.20
31003;DHT22;23051;-6.372;106.786;2024-03-17T02:27:15;26.70;98.10
31003;DHT22;23051;-6.372;106.786;2024-03-17T02:29:17;26.80;98.20
31003;DHT22;23051;-6.372;106.786;2024-03-17T02:31:18;26.80;98.10
31003;DHT22;23051;-6.372;106.786;2024-03-17T02:33:19;26.80;98.10
31003;DHT22;23051;-6.372;106.786;2024-03-17T02:35:23;26.80;98.10
31003;DHT22;23051;-6.372;106.786;2024-03-17T02:37:25;26.80;98.10
31003;DHT22;23051;-6.372;106.786;2024-03-17T02:39:27;26.80;98.20
31003;DHT22;23051;-6.372;106.786;2024-03-17T02:41:37;26.70;98.30
31003;DHT22;23051;-6.372;106.786;2024-03-17T02:43:38;26.70;98.30
31003;DHT22;23051;-6.372;106.786;2024-03-17T02:45:39;26.60;98.40
31003;DHT22;23051;-6.372;106.786;2024-03-17T02:47:40;26.60;98.40
31003;DHT22;23051;-6.372;106.786;2024-03-17T02:49:42;26.70;98.40
31003;DHT22;23051;-6.372;106.786;2024-03-17T02:51:50;26.70;98.40
31003;DHT22;23051;-6.372;106.786;2024-03-17T02:53:51;26.70;98.30
31003;DHT22;23051;-6.372;106.786;2024-03-17T02:55:53;26.80;98.20
31003;DHT22;23051;-6.372;106.786;2024-03-17T02:57:54;26.90;98.10
31003;DHT22;23051;-6.372;106.786;2024-03-17T02:59:55;27.00;98.10
31003;DHT22;23051;-6.372;106.786;2024-03-17T03:01:58;27.00;98.00
31003;DHT22;23051;-6.372;106.786;2024-03-17T03:04:09;27.00;98.00
31003;DHT22;23051;-6.372;106.786;2024-03-17T03:06:11;27.00;97.90
31003;DHT22;23051;-6.372;106.786;2024-03-17T03:08:13;27.00;98.00
31003;DHT22;23051;-6.372;106.786;2024-03-17T03:10:15;27.00;98.00
31003;DHT22;23051;-6.372;106.786;2024-03-17T03:12:16;27.00;98.00
31003;DHT22;23051;-6.372;106.786;2024-03-17T03:14:29;27.00;98.00
31003;DHT22;23051;-6.372;106.786;2024-03-17T03:16:30;27.00;98.00
31003;DHT22;23051;-6.372;106.786;2024-03-17T03:18:35;27.00;98.00
31003;DHT22;23051;-6.372;106.786;2024-03-17T03:20:37;27.00;98.00
31003;DHT22;23051;-6.372;106.786;2024-03-17T03:22:38;27.00;98.00
31003;DHT22;23051;-6.372;106.786;2024-03-17T03:24:39;27.10;98.10
31003;DHT22;23051;-6.372;106.786;2024-03-17T03:26:40;27.10;98.00
31003;DHT22;23051;-6.372;106.786;2024-03-17T03:28:50;27.10;98.00
31003;DHT22;23051;-6.372;106.786;2024-03-17T03:30:52;27.10;97.90
31003;DHT22;23051;-6.372;106.786;2024-03-17T03:32:54;27.20;97.90
31003;DHT22;23051;-6.372;106.786;2024-03-17T03:35:09;27.20;97.90
31003;DHT22;23051;-6.372;106.786;2024-03-17T03:37:12;27.20;97.80
31003;DHT22;23051;-6.372;106.786;2024-03-17T03:39:13;27.20;97.80
31003;DHT22;23051;-6.372;106.786;2024-03-17T03:41:15;27.30;97.70
31003;DHT22;23051;-6.372;106.786;2024-03-17T03:43:17;27.30;97.60
31003;DHT22;23051;-6.372;106.786;2024-03-17T03:45:18;27.40;97.60
31003;DHT22;23051;-6.372;106.786;2024-03-17T03:47:21;27.40;97.60
31003;DHT22;23051;-6.372;106.786;2024-03-17T03:49:22;27.50;97.50
31003;DHT22;23051;-6.372;106.786;2024-03-17T03:51:24;27.50;97.40
31003;DHT22;23051;-6.372;106.786;2024-03-17T03:53:25;27.60;97.40
31003;DHT22;23051;-6.372;106.786;2024-03-17T03:55:27;27.60;97.30
31003;DHT22;23051;-6.372;106.786;2024-03-17T03:59:41;27.80;97.20
31003;DHT22;23051;-6.372;106.786;2024-03-17T04:01:43;27.80;97.10
31003;DHT22;23051;-6.372;106.786;2024-03-17T04:03:44;27.80;97.00
31003;DHT22;23051;-6.372;106.786;2024-03-17T04:05:49;27.90;97.00
31003;DHT22;23051;-6.372;106.786;2024-03-17T04:07:55;27.90;97.00
31003;DHT22;23051;-6.372;106.786;2024-03-17T04:10:04;28.00;96.90
31003;DHT22;23051;-6.372;106.786;2024-03-17T04:12:06;28.00;96.90
31003;DHT22;23051;-6.372;106.786;2024-03-17T04:14:07;28.00;96.90
31003;DHT22;23051;-6.372;106.786;2024-03-17T04:16:08;28.00;96.90
31003;DHT22;23051;-6.372;106.786;2024-03-17T04:18:11;27.90;96.90
31003;DHT22;23051;-6.372;106.786;2024-03-17T04:20:12;27.90;97.00
31003;DHT22;23051;-6.372;106.786;2024-03-17T04:22:16;27.80;97.10
31003;DHT22;23051;-6.372;106.786;2024-03-17T04:24:18;27.70;97.20
31003;DHT22;23051;-6.372;106.786;2024-03-17T04:26:19;27.70;97.20
31003;DHT22;23051;-6.372;106.786;2024-03-17T04:28:20;27.70;97.30
31003;DHT22;23051;-6.372;106.786;2024-03-17T04:30:22;27.80;97.30
31003;DHT22;23051;-6.372;106.786;2024-03-17T04:32:24;27.80;97.20
31003;DHT22;23051;-6.372;106.786;2024-03-17T04:34:37;27.80;97.20
31003;DHT22;23051;-6.372;106.786;2024-03-17T04:36:39;27.90;97.20
31003;DHT22;23051;-6.372;106.786;2024-03-17T04:38:40;27.90;97.10
31003;DHT22;23051;-6.372;106.786;2024-03-17T04:40:42;27.90;97.10
31003;DHT22;23051;-6.372;106.786;2024-03-17T04:42:52;28.00;97.00
31003;DHT22;23051;-6.372;106.786;2024-03-17T04:44:54;28.10;97.00
31003;DHT22;23051;-6.372;106.786;2024-03-17T04:46:56;28.10;96.90
31003;DHT22;23051;-6.372;106.786;2024-03-17T04:48:57;28.10;96.80
31003;DHT22;23051;-6.372;106.786;2024-03-17T04:50:59;28.20;96.80
31003;DHT22;23051;-6.372;106.786;2024-03-17T04:53:01;28.20;96.70
31003;DHT22;23051;-6.372;106.786;2024-03-17T04:55:03;28.20;96.60
31003;DHT22;23051;-6.372;106.786;2024-03-17T04:57:05;28.30;96.60
31003;DHT22;23051;-6.372;106.786;2024-03-17T04:59:14;28.30;96.50
31003;DHT22;23051;-6.372;106.786;2024-03-17T05:01:24;28.40;96.50
31003;DHT22;23051;-6.372;106.786;2024-03-17T05:03:33;28.40;96.40
31003;DHT22;23051;-6.372;106.786;2024-03-17T05:05:45;28.50;96.40
31003;DHT22;23051;-6.372;106.786;2024-03-17T05:08:20;28.60;96.30
31003;DHT22;23051;-6.372;106.786;2024-03-17T05:10:22;28.70;96.10
31003;DHT22;23051;-6.372;106.786;2024-03-17T05:12:29;28.80;96.00
31003;DHT22;23051;-6.372;106.786;2024-03-17T05:14:35;28.80;95.90
31003;DHT22;23051;-6.372;106.786;2024-03-17T05:19:08;28.90;95.90
31003;DHT22;23051;-6.372;106.786;2024-03-17T05:21:12;28.90;95.90
31003;DHT22;23051;-6.372;106.786;2024-03-17T05:23:14;28.90;95.90
31003;DHT22;23051;-6.372;106.786;2024-03-17T05:25:16;28.90;95.90
31003;DHT22;23051;-6.372;106.786;2024-03-17T05:27:22;28.90;95.80
31003;DHT22;23051;-6.372;106.786;2024-03-17T05:29:28;28.90;95.80
31003;DHT22;23051;-6.372;106.786;2024-03-17T05:31:31;29.00;95.80
31003;DHT22;23051;-6.372;106.786;2024-03-17T05:33:33;29.00;95.80
31003;DHT22;23051;-6.372;106.786;2024-03-17T05:35:35;29.00;95.70
31003;DHT22;23051;-6.372;106.786;2024-03-17T05:37:37;29.10;95.70
31003;DHT22;23051;-6.372;106.786;2024-03-17T05:39:39;29.10;95.60
31003;DHT22;23051;-6.372;106.786;2024-03-17T05:41:41;29.10;95.60
31003;DHT22;23051;-6.372;106.786;2024-03-17T05:43:48;29.10;95.60
31003;DHT22;23051;-6.372;106.786;2024-03-17T05:45:55;29.00;95.70
31003;DHT22;23051;-6.372;106.786;2024-03-17T05:48:07;29.00;95.80
31003;DHT22;23051;-6.372;106.786;2024-03-17T05:50:10;28.80;95.90
31003;DHT22;23051;-6.372;106.786;2024-03-17T05:52:18;28.70;96.10
31003;DHT22;23051;-6.372;106.786;2024-03-17T05:54:19;28.50;96.30
31003;DHT22;23051;-6.372;106.786;2024-03-17T05:56:21;28.30;96.60
31003;DHT22;23051;-6.372;106.786;2024-03-17T05:58:28;27.90;97.00
31003;DHT22;23051;-6.372;106.786;2024-03-17T06:00:39;27.60;97.60
31003;DHT22;23051;-6.372;106.786;2024-03-17T06:02:56;27.30;98.10
31003;DHT22;23051;-6.372;106.786;2024-03-17T06:05:10;27.20;98.60
31003;DHT22;23051;-6.372;106.786;2024-03-17T06:07:15;27.00;98.90
31003;DHT22;23051;-6.372;106.786;2024-03-17T06:09:20;27.00;99.20
31003;DHT22;23051;-6.372;106.786;2024-03-17T06:11:25;27.00;99.30
31003;DHT22;23051;-6.372;106.786;2024-03-17T06:13:31;27.10;99.20
31003;DHT22;23051;-6.372;106.786;2024-03-17T06:15:39;27.10;99.10
31003;DHT22;23051;-6.372;106.786;2024-03-17T06:17:41;27.30;98.90
31003;DHT22;23051;-6.372;106.786;2024-03-17T06:19:53;27.40;98.70
31003;DHT22;23051;-6.372;106.786;2024-03-17T06:21:55;27.50;98.50
31003;DHT22;23051;-6.372;106.786;2024-03-17T06:24:06;27.50;98.40
31003;DHT22;23051;-6.372;106.786;2024-03-17T06:26:14;27.50;98.40
31003;DHT22;23051;-6.372;106.786;2024-03-17T06:28:16;27.50;98.30
31003;DHT22;23051;-6.372;106.786;2024-03-17T06:30:17;27.40;98.30
31003;DHT22;23051;-6.372;106.786;2024-03-17T06:32:22;27.50;98.40
31003;DHT22;23051;-6.372;106.786;2024-03-17T06:34:25;27.40;98.40
31003;DHT22;23051;-6.372;106.786;2024-03-17T06:36:27;27.40;98.40
31003;DHT22;23051;-6.372;106.786;2024-03-17T06:38:33;27.40;98.40
31003;DHT22;23051;-6.372;106.786;2024-03-17T06:40:38;27.40;98.40
31003;DHT22;23051;-6.372;106.786;2024-03-17T06:42:41;27.40;98.40
31003;DHT22;23051;-6.372;106.786;2024-03-17T06:44:46;27.40;98.30
31003;DHT22;23051;-6.372;106.786;2024-03-17T06:46:50;27.40;98.30
31003;DHT22;23051;-6.372;106.786;2024-03-17T06:49:04;27.50;98.30
31003;DHT22;23051;-6.372;106.786;2024-03-17T06:51:09;27.50;98.20
31003;DHT22;23051;-6.372;106.786;2024-03-17T06:53:11;27.50;98.20
31003;DHT22;23051;-6.372;106.786;2024-03-17T06:55:16;27.50;98.10
31003;DHT22;23051;-6.372;106.786;2024-03-17T06:57:23;27.60;98.00
31003;DHT22;23051;-6.372;106.786;2024-03-17T06:59:25;27.70;98.00
31003;DHT22;23051;-6.372;106.786;2024-03-17T07:01:26;27.70;97.90
31003;DHT22;23051;-6.372;106.786;2024-03-17T07:03:29;27.80;97.90
31003;DHT22;23051;-6.372;106.786;2024-03-17T07:05:32;27.80;97.80
31003;DHT22;23051;-6.372;106.786;2024-03-17T07:07:35;27.80;97.70
31003;DHT22;23051;-6.372;106.786;2024-03-17T07:09:36;27.90;97.60
31003;DHT22;23051;-6.372;106.786;2024-03-17T07:11:38;27.90;97.60
31003;DHT22;23051;-6.372;106.786;2024-03-17T07:13:39;28.00;97.50
31003;DHT22;23051;-6.372;106.786;2024-03-17T07:15:48;28.10;97.40
31003;DHT22;23051;-6.372;106.786;2024-03-17T09:19:13;28.20;97.00
31003;DHT22;23051;-6.372;106.786;2024-03-17T09:21:14;28.10;97.60
31003;DHT22;23051;-6.372;106.786;2024-03-17T09:23:17;28.10;97.40
31003;DHT22;23051;-6.372;106.786;2024-03-17T09:25:18;28.00;97.50
31003;DHT22;23051;-6.372;106.786;2024-03-17T09:27:19;27.90;97.60
31003;DHT22;23051;-6.372;106.786;2024-03-17T09:29:24;27.80;97.70
31003;DHT22;23051;-6.372;106.786;2024-03-17T09:31:28;27.90;97.80
31003;DHT22;23051;-6.372;106.786;2024-03-17T09:33:31;27.80;97.80
31003;DHT22;23051;-6.372;106.786;2024-03-17T09:35:33;27.90;97.80
31003;DHT22;23051;-6.372;106.786;2024-03-17T09:37:35;27.90;97.80
31003;DHT22;23051;-6.372;106.786;2024-03-17T09:39:37;27.90;97.80
31003;DHT22;23051;-6.372;106.786;2024-03-17T09:41:39;27.90;97.80
31003;DHT22;23051;-6.372;106.786;2024-03-17T09:43:40;27.90;97.80
31003;DHT22;23051;-6.372;106.786;2024-03-17T09:45:41;27.80;97.80
31003;DHT22;23051;-6.372;106.786;2024-03-17T09:47:42;27.90;97.90
31003;DHT22;23051;-6.372;106.786;2024-03-17T09:49:44;27.90;97.90
31003;DHT22;23051;-6.372;106.786;2024-03-17T09:51:45;27.90;97.90
31003;DHT22;23051;-6.372;106.786;2024-03-17T09:53:48;27.90;97.90
31003;DHT22;23051;-6.372;106.786;2024-03-17T09:55:50;27.90;97.90
31003;DHT22;23051;-6.372;106.786;2024-03-17T09:57:52;27.80;97.90
31003;DHT22;23051;-6.372;106.786;2024-03-17T09:59:53;27.90;97.90
31003;DHT22;23051;-6.372;106.786;2024-03-17T10:01:54;27.90;97.90
31003;DHT22;23051;-6.372;106.786;2024-03-17T10:03:56;27.90;97.90
31003;DHT22;23051;-6.372;106.786;2024-03-17T10:06:00;27.90;97.90
31003;DHT22;23051;-6.372;106.786;2024-03-17T10:08:02;27.90;97.90
31003;DHT22;23051;-6.372;106.786;2024-03-17T10:10:13;28.00;97.80
31003;DHT22;23051;-6.372;106.786;2024-03-17T10:12:26;28.00;97.80
31003;DHT22;23051;-6.372;106.786;2024-03-17T10:14:31;28.10;97.60
31003;DHT22;23051;-6.372;106.786;2024-03-17T10:16:37;28.20;97.50
31003;DHT22;23051;-6.372;106.786;2024-03-17T10:18:39;28.20;97.40
31003;DHT22;23051;-6.372;106.786;2024-03-17T10:20:44;28.30;97.40
31003;DHT22;23051;-6.372;106.786;2024-03-17T10:22:58;28.30;97.30
31003;DHT22;23051;-6.372;106.786;2024-03-17T10:25:01;28.40;97.20
31003;DHT22;23051;-6.372;106.786;2024-03-17T10:27:03;28.40;97.10
31003;DHT22;23051;-6.372;106.786;2024-03-17T10:29:04;28.40;97.10
31003;DHT22;23051;-6.372;106.786;2024-03-17T10:31:06;28.40;97.10
31003;DHT22;23051;-6.372;106.786;2024-03-17T10:33:21;28.40;97.20
31003;DHT22;23051;-6.372;106.786;2024-03-17T10:35:27;28.30;97.20
31003;DHT22;23051;-6.372;106.786;2024-03-17T10:37:28;28.30;97.30
31003;DHT22;23051;-6.372;106.786;2024-03-17T10:39:30;28.20;97.30
31003;DHT22;23051;-6.372;106.786;2024-03-17T10:41:31;28.10;97.40
31003;DHT22;23051;-6.372;106.786;2024-03-17T10:43:37;28.10;97.90
31003;DHT22;23051;-6.372;106.786;2024-03-17T10:45:42;28.10;97.60
31003;DHT22;23051;-6.372;106.786;2024-03-17T10:47:49;28.00;97.70
31003;DHT22;23051;-6.372;106.786;2024-03-17T10:49:52;27.90;97.70
31003;DHT22;23051;-6.372;106.786;2024-03-17T10:54:29;27.90;97.90
31003;DHT22;23051;-6.372;106.786;2024-03-17T10:56:31;27.90;97.90
31003;DHT22;23051;-6.372;106.786;2024-03-17T10:58:36;27.80;98.00
31003;DHT22;23051;-6.372;106.786;2024-03-17T11:00:37;27.80;98.00
31003;DHT22;23051;-6.372;106.786;2024-03-17T11:02:40;27.80;98.00
31003;DHT22;23051;-6.372;106.786;2024-03-17T11:04:41;27.80;98.10
31003;DHT22;23051;-6.372;106.786;2024-03-17T11:06:43;27.80;98.50
31003;DHT22;23051;-6.372;106.786;2024-03-17T11:08:47;27.70;98.10
31003;DHT22;23051;-6.372;106.786;2024-03-17T11:10:52;27.70;98.10
31003;DHT22;23051;-6.372;106.786;2024-03-17T11:12:59;27.70;98.20
31003;DHT22;23051;-6.372;106.786;2024-03-17T11:16:01;27.70;98.20
31003;DHT22;23051;-6.372;106.786;2024-03-17T11:17:40;27.70;98.20
31003;DHT22;23051;-6.372;106.786;2024-03-17T11:19:42;27.60;98.60
31003;DHT22;23051;-6.372;106.786;2024-03-17T11:21:43;27.60;98.30
31003;DHT22;23051;-6.372;106.786;2024-03-17T11:23:45;27.60;98.30
31003;DHT22;23051;-6.372;106.786;2024-03-17T11:25:55;27.60;98.30
31003;DHT22;23051;-6.372;106.786;2024-03-17T11:27:57;27.60;98.40
31003;DHT22;23051;-6.372;106.786;2024-03-17T11:30:34;27.60;98.40
31003;DHT22;23051;-6.372;106.786;2024-03-17T11:32:26;27.50;98.40
31003;DHT22;23051;-6.372;106.786;2024-03-17T11:34:32;27.50;98.40
31003;DHT22;23051;-6.372;106.786;2024-03-17T11:36:36;27.50;98.50
31003;DHT22;23051;-6.372;106.786;2024-03-17T11:43:22;27.50;98.60
31003;DHT22;23051;-6.372;106.786;2024-03-17T11:45:25;27.50;98.60
31003;DHT22;23051;-6.372;106.786;2024-03-17T11:47:45;27.40;98.60
31003;DHT22;23051;-6.372;106.786;2024-03-17T11:49:47;27.40;98.60
31003;DHT22;23051;-6.372;106.786;2024-03-17T11:52:02;27.40;98.60
31003;DHT22;23051;-6.372;106.786;2024-03-17T11:54:13;27.40;98.60
31003;DHT22;23051;-6.372;106.786;2024-03-17T11:56:23;27.40;98.70
31003;DHT22;23051;-6.372;106.786;2024-03-17T11:58:27;27.40;98.70
31003;DHT22;23051;-6.372;106.786;2024-03-17T12:00:28;27.40;98.70
31003;DHT22;23051;-6.372;106.786;2024-03-17T12:02:30;27.40;98.70
31003;DHT22;23051;-6.372;106.786;2024-03-17T12:04:32;27.40;98.70
31003;DHT22;23051;-6.372;106.786;2024-03-17T12:06:38;27.30;98.70
31003;DHT22;23051;-6.372;106.786;2024-03-17T12:08:40;27.30;98.70
31003;DHT22;23051;-6.372;106.786;2024-03-17T12:10:46;27.30;98.80
31003;DHT22;23051;-6.372;106.786;2024-03-17T12:12:48;27.30;98.80
31003;DHT22;23051;-6.372;106.786;2024-03-17T12:14:50;27.30;98.80
31003;DHT22;23051;-6.372;106.786;2024-03-17T12:16:53;27.20;98.80
31003;DHT22;23051;-6.372;106.786;2024-03-17T12:19:07;27.20;98.80
31003;DHT22;23051;-6.372;106.786;2024-03-17T12:21:19;27.20;98.90
31003;DHT22;23051;-6.372;106.786;2024-03-17T12:23:21;27.20;98.90
31003;DHT22;23051;-6.372;106.786;2024-03-17T12:25:25;27.20;99.00
31003;DHT22;23051;-6.372;106.786;2024-03-17T12:27:27;27.10;98.90
31003;DHT22;23051;-6.372;106.786;2024-03-17T12:29:29;27.10;99.00
31003;DHT22;23051;-6.372;106.786;2024-03-17T12:31:33;27.10;99.00
31003;DHT22;23051;-6.372;106.786;2024-03-17T12:33:34;27.10;99.00
31003;DHT22;23051;-6.372;106.786;2024-03-17T12:35:45;27.10;99.00
31003;DHT22;23051;-6.372;106.786;2024-03-17T12:37:46;27.10;99.00
31003;DHT22;23051;-6.372;106.786;2024-03-17T12:39:48;27.10;99.00
31003;DHT22;23051;-6.372;106.786;2024-03-17T12:42:07;27.10;99.00
31003;DHT22;23051;-6.372;106.786;2024-03-17T12:44:20;27.20;99.40
31003;DHT22;23051;-6.372;106.786;2024-03-17T12:46:22;27.10;99.00
31003;DHT22;23051;-6.372;106.786;2024-03-17T12:48:23;27.10;99.00
31003;DHT22;23051;-6.372;106.786;2024-03-17T12:50:24;27.10;99.00
31003;DHT22;23051;-6.372;106.786;2024-03-17T12:52:26;27.10;99.00
31003;DHT22;23051;-6.372;106.786;2024-03-17T12:54:28;27.10;99.00
31003;DHT22;23051;-6.372;106.786;2024-03-17T12:56:29;27.10;99.00
31003;DHT22;23051;-6.372;106.786;2024-03-17T12:58:49;27.10;99.00
31003;DHT22;23051;-6.372;106.786;2024-03-17T13:01:08;27.20;99.10
31003;DHT22;23051;-6.372;106.786;2024-03-17T13:03:25;27.20;99.10
31003;DHT22;23051;-6.372;106.786;2024-03-17T13:05:30;27.20;99.10
31003;DHT22;23051;-6.372;106.786;2024-03-17T13:07:35;27.20;99.10
31003;DHT22;23051;-6.372;106.786;2024-03-17T13:09:36;27.20;99.00
31003;DHT22;23051;-6.372;106.786;2024-03-17T13:11:37;27.20;99.00
31003;DHT22;23051;-6.372;106.786;2024-03-17T13:13:38;27.10;99.00
31003;DHT22;23051;-6.372;106.786;2024-03-17T13:15:40;27.10;99.00
31003;DHT22;23051;-6.372;106.786;2024-03-17T13:17:41;27.10;99.00
31003;DHT22;23051;-6.372;106.786;2024-03-17T13:19:45;27.10;99.00
31003;DHT22;23051;-6.372;106.786;2024-03-17T13:21:47;27.10;99.10
31003;DHT22;23051;-6.372;106.786;2024-03-17T13:23:48;27.10;99.10
31003;DHT22;23051;-6.372;106.786;2024-03-17T13:25:49;27.10;99.10
31003;DHT22;23051;-6.372;106.786;2024-03-17T13:27:51;27.10;99.40
31003;DHT22;23051;-6.372;106.786;2024-03-17T13:29:52;27.10;99.10
31003;DHT22;23051;-6.372;106.786;2024-03-17T13:31:54;27.10;99.00
31003;DHT22;23051;-6.372;106.786;2024-03-17T13:33:55;27.10;99.00
31003;DHT22;23051;-6.372;106.786;2024-03-17T13:35:57;27.10;98.90
31003;DHT22;23051;-6.372;106.786;2024-03-17T13:37:58;27.10;98.90
31003;DHT22;23051;-6.372;106.786;2024-03-17T13:40:00;27.20;98.90
31003;DHT22;23051;-6.372;106.786;2024-03-17T13:42:04;27.10;98.90
31003;DHT22;23051;-6.372;106.786;2024-03-17T13:44:05;27.10;98.90
31003;DHT22;23051;-6.372;106.786;2024-03-17T13:46:06;27.10;98.90
31003;DHT22;23051;-6.372;106.786;2024-03-17T13:48:08;27.10;98.90
31003;DHT22;23051;-6.372;106.786;2024-03-17T13:50:11;27.00;98.90
31003;DHT22;23051;-6.372;106.786;2024-03-17T13:52:13;27.00;99.00
31003;DHT22;23051;-6.372;106.786;2024-03-17T13:54:17;27.00;99.00
31003;DHT22;23051;-6.372;106.786;2024-03-17T13:56:18;27.00;99.10
31003;DHT22;23051;-6.372;106.786;2024-03-17T13:58:20;26.90;99.10
31003;DHT22;23051;-6.372;106.786;2024-03-17T14:00:22;26.90;99.20
31003;DHT22;23051;-6.372;106.786;2024-03-17T14:02:23;26.90;99.20
31003;DHT22;23051;-6.372;106.786;2024-03-17T14:04:24;26.90;99.30
31003;DHT22;23051;-6.372;106.786;2024-03-17T14:06:26;26.80;99.30
31003;DHT22;23051;-6.372;106.786;2024-03-17T14:08:27;26.90;99.70
31003;DHT22;23051;-6.372;106.786;2024-03-17T14:10:28;26.80;99.30
31003;DHT22;23051;-6.372;106.786;2024-03-17T14:12:29;26.80;99.40
31003;DHT22;23051;-6.372;106.786;2024-03-17T14:14:32;26.80;99.40
31003;DHT22;23051;-6.372;106.786;2024-03-17T14:16:34;26.70;99.40
31003;DHT22;23051;-6.372;106.786;2024-03-17T14:18:35;26.70;99.40
31003;DHT22;23051;-6.372;106.786;2024-03-17T14:20:36;26.70;99.50
31003;DHT22;23051;-6.372;106.786;2024-03-17T14:22:38;26.70;99.50
31003;DHT22;23051;-6.372;106.786;2024-03-17T14:24:39;26.60;99.50
31003;DHT22;23051;-6.372;106.786;2024-03-17T14:26:43;26.60;99.60
31003;DHT22;23051;-6.372;106.786;2024-03-17T14:28:49;26.60;99.60
31003;DHT22;23051;-6.372;106.786;2024-03-17T14:30:55;26.60;99.70
31003;DHT22;23051;-6.372;106.786;2024-03-17T14:32:57;26.50;99.90
31003;DHT22;23051;-6.372;106.786;2024-03-17T14:34:58;26.50;99.70
31003;DHT22;23051;-6.372;106.786;2024-03-17T14:37:00;26.50;99.70
31003;DHT22;23051;-6.372;106.786;2024-03-17T14:39:03;26.50;99.70
31003;DHT22;23051;-6.372;106.786;2024-03-17T14:41:04;26.50;99.80
31003;DHT22;23051;-6.372;106.786;2024-03-17T14:43:06;26.50;99.80
31003;DHT22;23051;-6.372;106.786;2024-03-17T14:45:07;26.50;99.80
31003;DHT22;23051;-6.372;106.786;2024-03-17T14:47:09;26.50;99.80
31003;DHT22;23051;-6.372;106.786;2024-03-17T14:49:11;26.50;99.90
31003;DHT22;23051;-6.372;106.786;2024-03-17T14:51:12;26.50;99.90